Time;durP1;ratioP1;P1;durP2;ratioP2;P2;SDS_P1;SDS_P2;PMS_P1;PMS_P2;Temp;Humidity;BMP_temperature;BMP_pressure;BME280_temperature;BME280_humidity;BME280_pressure;Samples;Min_cycle;Max_cycle;Signal;HPM_P1;HPM_P2
2022/11/25 00:01:49;;;;;;;13.82;3.63;;;7.80;99.90;;;;;;5020037;28;20034;-76
2022/11/25 00:04:15;;;;;;;14.20;3.55;;;7.80;99.90;;;;;;5012854;28;20041;-77
2022/11/25 00:06:41;;;;;;;9.25;3.10;;;7.80;99.90;;;;;;5014586;28;20034;-77
2022/11/25 00:09:10;;;;;;;14.27;3.65;;;7.80;99.90;;;;;;5018014;28;20049;-76
2022/11/25 00:11:39;;;;;;;15.13;3.88;;;7.80;99.90;;;;;;5039354;28;20399;-76
2022/11/25 00:14:05;;;;;;;18.67;4.10;;;7.80;99.90;;;;;;5020459;28;20042;-76
2022/11/25 00:16:31;;;;;;;17.38;4.13;;;7.80;99.90;;;;;;5025191;28;20143;-77
2022/11/25 00:18:57;;;;;;;14.15;3.92;;;7.90;99.90;;;;;;5016373;28;20081;-76
2022/11/25 00:21:25;;;;;;;18.42;4.47;;;7.90;99.90;;;;;;5019787;28;20038;-77
2022/11/25 00:23:53;;;;;;;9.43;3.08;;;7.90;99.90;;;;;;5016138;28;20048;-76
2022/11/25 00:26:19;;;;;;;22.35;4.32;;;7.90;99.90;;;;;;5047741;28;20409;-77
2022/11/25 00:28:45;;;;;;;19.77;3.75;;;7.90;99.90;;;;;;5024831;28;20040;-76
2022/11/25 00:31:20;;;;;;;15.88;3.40;;;7.90;99.90;;;;;;5023640;28;20124;-77
2022/11/25 00:33:46;;;;;;;16.30;3.55;;;7.90;99.90;;;;;;5008813;28;20492;-77
2022/11/25 00:36:22;;;;;;;19.20;3.55;;;7.90;99.90;;;;;;5024143;28;20456;-77
2022/11/25 00:38:55;;;;;;;15.77;4.70;;;7.90;99.90;;;;;;5033599;28;20129;-76
2022/11/25 00:46:53;;;;;;;14.77;3.70;;;7.90;99.90;;;;;;5023303;28;20406;-77
2022/11/25 00:49:19;;;;;;;17.33;3.63;;;7.90;99.90;;;;;;5024228;28;20034;-76
2022/11/25 00:51:44;;;;;;;14.30;3.70;;;7.90;99.90;;;;;;5024944;28;20037;-77
2022/11/25 00:54:10;;;;;;;19.33;3.67;;;8.00;99.90;;;;;;5029230;28;20045;-77
2022/11/25 00:56:35;;;;;;;17.95;3.40;;;7.90;99.90;;;;;;5013650;28;20037;-77
2022/11/25 00:59:01;;;;;;;14.68;3.33;;;8.00;99.90;;;;;;5021309;28;20124;-77
2022/11/25 01:01:27;;;;;;;17.73;5.10;;;8.00;99.90;;;;;;5024598;28;20067;-77
2022/11/25 01:03:53;;;;;;;13.07;4.38;;;8.00;99.90;;;;;;5041591;28;20088;-77
2022/11/25 01:06:18;;;;;;;15.43;3.90;;;8.00;99.90;;;;;;5025334;28;20034;-77
2022/11/25 01:08:44;;;;;;;14.05;3.70;;;8.30;99.90;;;;;;5015127;28;20030;-77
2022/11/25 01:11:13;;;;;;;17.10;3.90;;;8.00;99.90;;;;;;5011901;28;20042;-77
2022/11/25 01:13:39;;;;;;;11.68;3.50;;;8.00;99.90;;;;;;5020061;28;20043;-76
2022/11/25 01:16:06;;;;;;;15.85;4.07;;;8.00;99.90;;;;;;5021730;28;20038;-77
2022/11/25 01:18:32;;;;;;;17.92;4.72;;;8.00;99.90;;;;;;5044492;28;20405;-77
2022/11/25 01:21:29;;;;;;;15.88;4.65;;;8.00;99.90;;;;;;5015390;28;20437;-77
2022/11/25 01:23:54;;;;;;;15.88;3.80;;;8.00;99.90;;;;;;5043865;28;20081;-76
2022/11/25 01:26:22;;;;;;;16.23;3.95;;;8.00;99.90;;;;;;5013094;28;20418;-77
2022/11/25 01:28:51;;;;;;;17.30;3.90;;;8.10;99.90;;;;;;5047363;28;20034;-76
2022/11/25 01:31:19;;;;;;;17.33;4.22;;;8.10;99.90;;;;;;5015554;28;20250;-77
2022/11/25 01:33:47;;;;;;;16.52;4.20;;;8.10;99.90;;;;;;5013498;28;20482;-77
2022/11/25 01:36:14;;;;;;;15.77;4.43;;;8.10;99.90;;;;;;5019888;28;20033;-76
2022/11/25 01:38:41;;;;;;;17.20;4.05;;;8.10;99.90;;;;;;5044909;28;20513;-76
2022/11/25 01:41:09;;;;;;;14.18;4.32;;;8.10;99.90;;;;;;5012152;28;20045;-75
2022/11/25 01:43:35;;;;;;;15.15;4.47;;;8.10;99.90;;;;;;5019844;28;20065;-76
2022/11/25 01:46:24;;;;;;;17.92;4.45;;;8.00;99.90;;;;;;5020915;28;20037;-75
2022/11/25 01:49:01;;;;;;;18.15;4.22;;;8.00;99.90;;;;;;5021993;28;20563;-76
2022/11/25 01:51:35;;;;;;;15.05;4.03;;;8.00;99.90;;;;;;5017791;28;20072;-76
2022/11/25 01:54:03;;;;;;;16.33;4.40;;;8.00;99.90;;;;;;5010518;28;20510;-76
2022/11/25 01:56:34;;;;;;;14.77;4.32;;;8.00;99.90;;;;;;5010749;28;20050;-76
2022/11/25 01:59:01;;;;;;;17.67;4.47;;;8.00;99.90;;;;;;5048781;28;20054;-76
2022/11/25 02:01:27;;;;;;;20.88;4.78;;;8.00;99.90;;;;;;5020308;28;20171;-75
2022/11/25 02:03:55;;;;;;;23.83;4.72;;;8.00;99.90;;;;;;5031128;28;20037;-76
2022/11/25 02:06:27;;;;;;;20.13;4.50;;;7.90;99.90;;;;;;5011580;28;20445;-75
2022/11/25 02:08:57;;;;;;;17.63;4.35;;;8.00;99.90;;;;;;5040647;28;20045;-75
2022/11/25 02:11:25;;;;;;;17.33;4.53;;;8.00;99.90;;;;;;5027196;28;20133;-75
2022/11/25 02:13:52;;;;;;;15.48;4.20;;;8.00;99.90;;;;;;5035024;28;20105;-74
2022/11/25 02:16:18;;;;;;;19.35;4.57;;;8.00;99.90;;;;;;5014977;28;20041;-75
2022/11/25 02:18:44;;;;;;;17.13;4.40;;;8.00;99.90;;;;;;4994193;28;20088;-75
2022/11/25 02:21:09;;;;;;;17.92;4.78;;;8.00;99.90;;;;;;5033041;28;20045;-75
2022/11/25 02:23:48;;;;;;;16.27;4.50;;;8.00;99.90;;;;;;5006203;28;20036;-76
2022/11/25 02:26:13;;;;;;;17.17;4.07;;;8.00;99.90;;;;;;5017908;28;20038;-75
2022/11/25 02:28:39;;;;;;;20.13;5.35;;;8.00;99.90;;;;;;5021031;28;20040;-76
2022/11/25 02:31:06;;;;;;;14.30;4.40;;;8.00;99.90;;;;;;5019116;28;20027;-76
2022/11/25 02:33:32;;;;;;;25.98;5.10;;;8.00;99.90;;;;;;5023656;28;20034;-76
2022/11/25 02:36:03;;;;;;;21.98;5.03;;;7.90;99.90;;;;;;5042131;28;20497;-76
2022/11/25 02:38:29;;;;;;;14.60;4.55;;;7.90;99.90;;;;;;5024851;28;20046;-76
2022/11/25 02:41:04;;;;;;;20.30;4.90;;;8.00;99.90;;;;;;5009696;28;20435;-75
2022/11/25 02:43:30;;;;;;;20.45;5.05;;;8.00;99.90;;;;;;5023822;28;20607;-76
2022/11/25 02:46:11;;;;;;;20.15;5.85;;;8.00;99.90;;;;;;5021669;28;20125;-76
2022/11/25 02:48:38;;;;;;;19.17;5.55;;;8.00;99.90;;;;;;5018468;28;20044;-76
2022/11/25 02:51:04;;;;;;;18.10;5.72;;;8.30;99.90;;;;;;5014540;28;20362;-76
2022/11/25 02:53:30;;;;;;;18.80;5.43;;;8.00;99.90;;;;;;5012637;28;20448;-76
2022/11/25 02:55:56;;;;;;;11.48;5.50;;;8.00;99.90;;;;;;5010275;28;20223;-76
2022/11/25 02:58:21;;;;;;;21.70;6.25;;;8.00;99.90;;;;;;5018265;28;20038;-75
2022/11/25 03:00:47;;;;;;;20.05;5.95;;;8.00;99.90;;;;;;5010318;28;20056;-75
2022/11/25 03:03:13;;;;;;;20.17;5.97;;;8.00;99.90;;;;;;5015667;28;20034;-75
2022/11/25 03:05:39;;;;;;;16.50;6.03;;;8.00;99.90;;;;;;5013503;28;20092;-75
2022/11/25 03:08:05;;;;;;;17.05;5.38;;;8.30;99.90;;;;;;5045300;28;20129;-76
2022/11/25 03:10:31;;;;;;;21.38;6.22;;;8.00;99.90;;;;;;5012095;28;20235;-74
2022/11/25 03:12:56;;;;;;;24.60;6.68;;;8.10;99.90;;;;;;5019848;28;20046;-76
2022/11/25 03:15:22;;;;;;;18.33;6.05;;;8.10;99.90;;;;;;5019503;28;20087;-76
2022/11/25 03:17:48;;;;;;;26.92;6.97;;;8.10;99.90;;;;;;5010836;28;20397;-76
2022/11/25 03:20:14;;;;;;;21.92;6.43;;;8.10;99.90;;;;;;5019890;28;20051;-75
2022/11/25 03:22:43;;;;;;;15.38;5.97;;;8.10;99.90;;;;;;5041851;28;20963;-76
2022/11/25 03:25:10;;;;;;;19.75;6.30;;;8.10;99.90;;;;;;5054296;28;20052;-76
2022/11/25 03:27:37;;;;;;;21.30;6.47;;;8.10;99.90;;;;;;5018085;28;20037;-75
2022/11/25 03:30:05;;;;;;;17.23;5.93;;;8.10;99.90;;;;;;5034235;28;20061;-76
2022/11/25 03:32:31;;;;;;;20.65;5.95;;;8.10;99.90;;;;;;5031203;28;20136;-76
2022/11/25 03:34:56;;;;;;;18.98;6.57;;;8.10;99.90;;;;;;5009050;28;20121;-76
2022/11/25 03:37:22;;;;;;;18.88;5.65;;;8.20;99.90;;;;;;5014070;28;20033;-76
2022/11/25 03:39:47;;;;;;;20.00;6.32;;;8.20;99.90;;;;;;5054641;28;20049;-76
2022/11/25 03:42:13;;;;;;;24.38;6.50;;;8.20;99.90;;;;;;5021826;28;20521;-76
2022/11/25 03:44:39;;;;;;;25.52;7.60;;;8.10;99.90;;;;;;5024168;28;20041;-75
2022/11/25 03:47:04;;;;;;;20.90;7.00;;;8.20;99.90;;;;;;5011494;28;20069;-75
2022/11/25 03:49:30;;;;;;;21.15;5.88;;;8.20;99.90;;;;;;5013003;28;20478;-75
2022/11/25 03:51:55;;;;;;;18.85;6.82;;;8.10;99.90;;;;;;5053453;28;20037;-76
2022/11/25 03:54:21;;;;;;;20.65;6.28;;;8.10;99.90;;;;;;5009757;28;20129;-75
2022/11/25 03:56:47;;;;;;;24.17;6.63;;;8.20;99.90;;;;;;5039323;28;20048;-75
2022/11/25 03:59:12;;;;;;;25.05;6.00;;;7.60;99.90;;;;;;5025702;28;20087;-75
2022/11/25 04:01:38;;;;;;;22.60;6.50;;;8.20;99.90;;;;;;5014399;28;20033;-76
2022/11/25 04:04:03;;;;;;;21.98;6.10;;;8.20;99.90;;;;;;5038299;28;20441;-76
2022/11/25 04:06:30;;;;;;;21.15;6.50;;;8.30;99.90;;;;;;5024040;28;20070;-75
2022/11/25 04:08:57;;;;;;;28.38;6.20;;;8.30;99.90;;;;;;5021446;28;20073;-76
2022/11/25 04:12:45;;;;;;;17.20;5.88;;;8.30;99.90;;;;;;5021844;28;20046;-74
2022/11/25 04:14:08;;;;;;;17.85;6.15;;;8.30;99.90;;;;;;5033835;28;20045;-76
2022/11/25 04:16:34;;;;;;;18.73;6.15;;;9.00;99.90;;;;;;5039859;28;20038;-76
2022/11/25 04:18:59;;;;;;;25.90;6.40;;;8.30;99.90;;;;;;5036065;28;20038;-76
2022/11/25 04:21:25;;;;;;;17.17;6.10;;;8.30;99.90;;;;;;5025176;28;20071;-75
2022/11/25 04:23:50;;;;;;;22.02;6.07;;;8.30;99.90;;;;;;5023331;28;20034;-76
2022/11/25 04:26:16;;;;;;;16.98;5.68;;;8.30;99.90;;;;;;5043739;28;20037;-76
2022/11/25 04:28:42;;;;;;;23.38;6.13;;;8.30;99.90;;;;;;5013073;28;20409;-76
2022/11/25 04:31:08;;;;;;;21.13;5.85;;;8.30;99.90;;;;;;5012779;28;20084;-75
2022/11/25 04:33:34;;;;;;;16.92;5.43;;;8.30;99.90;;;;;;5005794;28;20042;-76
2022/11/25 04:35:59;;;;;;;21.08;6.45;;;8.30;99.90;;;;;;5012953;28;20050;-75
2022/11/25 04:38:25;;;;;;;23.02;6.15;;;8.30;99.90;;;;;;5024642;28;20520;-75
2022/11/25 04:40:51;;;;;;;20.23;6.32;;;8.30;99.90;;;;;;5014536;28;20041;-76
2022/11/25 04:43:17;;;;;;;17.65;6.07;;;8.30;99.90;;;;;;5012282;28;20494;-76
2022/11/25 04:45:43;;;;;;;17.38;5.45;;;8.30;99.90;;;;;;5018192;28;20501;-76
2022/11/25 04:48:09;;;;;;;21.10;6.40;;;8.30;99.90;;;;;;5035022;28;20057;-76
2022/11/25 04:50:34;;;;;;;21.08;5.75;;;8.30;99.90;;;;;;5025120;28;20037;-76
2022/11/25 04:53:00;;;;;;;22.60;6.43;;;8.30;99.90;;;;;;5020418;28;20041;-76
2022/11/25 04:55:26;;;;;;;19.38;6.00;;;8.30;99.90;;;;;;5012857;28;20046;-76
2022/11/25 04:57:51;;;;;;;23.67;6.50;;;8.30;99.90;;;;;;5018110;28;20044;-76
2022/11/25 05:00:17;;;;;;;17.67;6.47;;;8.30;99.90;;;;;;5012114;28;20088;-76
2022/11/25 05:02:43;;;;;;;28.45;6.68;;;8.30;99.90;;;;;;5022000;28;20356;-76
2022/11/25 05:05:09;;;;;;;23.55;6.93;;;8.30;99.90;;;;;;5036448;28;20036;-76
2022/11/25 05:07:34;;;;;;;19.67;6.00;;;8.30;99.90;;;;;;5013760;28;20052;-76
2022/11/25 05:10:00;;;;;;;22.25;6.05;;;8.30;99.90;;;;;;5020254;28;20493;-76
2022/11/25 05:12:27;;;;;;;18.75;6.00;;;8.30;99.90;;;;;;5011640;28;20045;-77
2022/11/25 05:14:54;;;;;;;21.83;6.30;;;8.40;99.90;;;;;;5038955;28;20050;-76
2022/11/25 05:17:22;;;;;;;20.08;6.18;;;8.40;99.90;;;;;;5017635;28;20052;-77
2022/11/25 05:19:48;;;;;;;22.60;6.22;;;8.30;99.90;;;;;;5014765;28;20049;-76
2022/11/25 05:22:17;;;;;;;21.02;5.88;;;8.30;99.90;;;;;;5020730;28;20029;-77
2022/11/25 05:24:42;;;;;;;21.63;5.80;;;8.30;99.90;;;;;;5042511;28;20057;-75
2022/11/25 05:27:08;;;;;;;20.70;5.32;;;8.30;99.90;;;;;;5018971;28;20465;-76
2022/11/25 05:29:34;;;;;;;22.67;5.82;;;8.30;99.90;;;;;;5011490;28;20506;-76
2022/11/25 05:32:00;;;;;;;15.20;5.13;;;8.30;99.90;;;;;;5024723;28;20072;-76
2022/11/25 05:34:25;;;;;;;24.63;6.30;;;8.30;99.90;;;;;;5024621;28;20040;-76
2022/11/25 05:36:51;;;;;;;16.70;5.07;;;8.40;99.90;;;;;;5030876;28;20041;-77
2022/11/25 05:39:17;;;;;;;18.80;5.30;;;8.30;99.90;;;;;;5019150;28;20049;-75
2022/11/25 05:41:43;;;;;;;17.63;5.00;;;8.30;99.90;;;;;;5051395;28;20513;-76
2022/11/25 05:44:09;;;;;;;22.77;5.07;;;8.30;99.90;;;;;;5012403;28;20038;-76
2022/11/25 05:46:34;;;;;;;17.08;5.30;;;8.40;99.90;;;;;;5043369;28;20033;-76
2022/11/25 05:49:00;;;;;;;13.95;4.70;;;8.40;99.90;;;;;;5029754;28;20038;-76
2022/11/25 05:51:28;;;;;;;22.17;5.05;;;8.40;99.90;;;;;;5020498;28;20040;-76
2022/11/25 05:53:54;;;;;;;14.98;4.75;;;8.40;99.90;;;;;;5020822;28;20042;-75
2022/11/25 05:56:20;;;;;;;20.92;5.18;;;8.40;99.90;;;;;;5020549;28;20119;-76
2022/11/25 05:58:46;;;;;;;21.13;4.95;;;8.40;99.90;;;;;;5052256;28;20099;-76
2022/11/25 06:01:14;;;;;;;18.75;5.22;;;8.70;99.90;;;;;;5009733;28;20084;-75
2022/11/25 06:03:41;;;;;;;15.68;4.75;;;8.40;99.90;;;;;;5023435;28;20505;-75
2022/11/25 06:06:07;;;;;;;16.55;4.75;;;8.40;99.90;;;;;;5019901;28;20048;-75
2022/11/25 06:08:33;;;;;;;13.43;4.47;;;8.40;99.90;;;;;;5056639;28;20432;-76
2022/11/25 06:10:58;;;;;;;17.27;4.53;;;8.50;99.90;;;;;;5032153;28;20053;-77
2022/11/25 06:13:27;;;;;;;14.27;5.30;;;8.40;99.90;;;;;;5007139;28;20478;-76
2022/11/25 06:15:52;;;;;;;13.80;4.32;;;8.50;99.90;;;;;;5030034;28;20134;-76
2022/11/25 06:18:18;;;;;;;18.85;4.70;;;8.40;99.90;;;;;;5008527;28;20156;-75
2022/11/25 06:20:44;;;;;;;14.80;4.70;;;8.50;99.90;;;;;;5014015;28;20034;-76
2022/11/25 06:23:09;;;;;;;10.90;4.18;;;8.40;99.90;;;;;;5038210;28;20087;-76
2022/11/25 06:25:35;;;;;;;18.80;4.50;;;8.40;99.90;;;;;;5035059;28;20044;-76
2022/11/25 06:28:02;;;;;;;13.77;4.50;;;8.40;99.90;;;;;;5009776;28;20121;-77
2022/11/25 06:30:28;;;;;;;16.05;4.30;;;8.50;99.90;;;;;;5004998;28;20375;-76
2022/11/25 06:32:54;;;;;;;14.38;4.13;;;8.40;99.90;;;;;;5027852;28;20072;-77
2022/11/25 06:35:20;;;;;;;18.30;4.47;;;8.40;99.90;;;;;;5011401;28;20075;-77
2022/11/25 06:37:46;;;;;;;13.10;4.07;;;8.40;99.90;;;;;;5026214;28;20034;-77
2022/11/25 06:40:12;;;;;;;15.43;4.50;;;8.40;99.90;;;;;;5035625;28;20077;-76
2022/11/25 06:42:38;;;;;;;18.05;4.22;;;8.40;99.90;;;;;;5025390;28;20073;-76
2022/11/25 06:45:04;;;;;;;17.73;4.63;;;8.40;99.90;;;;;;5005908;28;20076;-77
2022/11/25 06:47:30;;;;;;;16.30;4.15;;;8.40;99.90;;;;;;5018698;28;20042;-77
2022/11/25 06:49:56;;;;;;;16.73;4.15;;;8.30;99.90;;;;;;5045417;28;20103;-77
2022/11/25 06:52:21;;;;;;;17.63;4.20;;;8.30;99.90;;;;;;5006260;28;20049;-77
2022/11/25 06:54:47;;;;;;;16.83;4.38;;;8.30;99.90;;;;;;5027020;28;20563;-75
2022/11/25 06:57:18;;;;;;;15.38;4.07;;;8.20;99.90;;;;;;5029434;28;20392;-77
2022/11/25 06:59:44;;;;;;;11.90;4.00;;;8.20;99.90;;;;;;5011748;28;20053;-76
2022/11/25 07:02:13;;;;;;;14.30;3.88;;;8.20;99.90;;;;;;5017025;28;20033;-77
2022/11/25 07:04:39;;;;;;;11.90;4.03;;;8.20;99.90;;;;;;5009652;28;20034;-76
2022/11/25 07:07:05;;;;;;;14.68;3.08;;;8.10;99.90;;;;;;5032740;28;20177;-76
2022/11/25 07:09:31;;;;;;;12.60;4.00;;;8.10;99.90;;;;;;5006984;28;20048;-76
2022/11/25 07:11:57;;;;;;;16.50;3.53;;;8.10;99.90;;;;;;5018579;28;20587;-76
2022/11/25 07:14:22;;;;;;;14.50;3.40;;;8.00;99.90;;;;;;5036524;28;20041;-76
2022/11/25 07:16:48;;;;;;;14.20;4.20;;;8.00;99.90;;;;;;5011240;28;20099;-76
2022/11/25 07:19:16;;;;;;;17.40;3.63;;;8.00;99.90;;;;;;5041923;28;20048;-76
2022/11/25 07:21:44;;;;;;;9.63;3.58;;;8.00;99.90;;;;;;5012976;28;20038;-76
2022/11/25 07:24:14;;;;;;;9.45;3.50;;;7.90;99.90;;;;;;5030234;28;20414;-75
2022/11/25 07:26:41;;;;;;;13.25;3.60;;;7.90;99.90;;;;;;5011731;28;20030;-76
2022/11/25 07:29:11;;;;;;;13.70;3.35;;;7.90;99.90;;;;;;5028374;28;20041;-76
2022/11/25 07:31:40;;;;;;;12.60;3.55;;;7.90;99.90;;;;;;5009334;28;20137;-76
2022/11/25 07:34:11;;;;;;;15.18;3.85;;;7.90;99.90;;;;;;5009325;28;20050;-76
2022/11/25 07:36:37;;;;;;;10.82;3.42;;;7.90;99.90;;;;;;5012783;28;20041;-75
2022/11/25 07:39:06;;;;;;;10.55;3.45;;;7.80;99.90;;;;;;5029775;28;20046;-76
2022/11/25 07:41:32;;;;;;;13.80;3.70;;;7.80;99.90;;;;;;5007139;28;20117;-75
2022/11/25 07:44:01;;;;;;;16.25;3.38;;;7.80;99.90;;;;;;5021035;28;20038;-76
2022/11/25 07:46:39;;;;;;;13.20;3.50;;;7.80;99.90;;;;;;5013798;28;20041;-76
2022/11/25 07:49:07;;;;;;;15.73;4.05;;;7.80;99.90;;;;;;5028629;28;20077;-76
2022/11/25 07:51:36;;;;;;;13.45;3.33;;;7.80;99.90;;;;;;5016988;28;20057;-76
2022/11/25 07:54:04;;;;;;;12.15;3.45;;;7.80;99.90;;;;;;5009041;28;20041;-76
2022/11/25 07:56:30;;;;;;;12.25;3.28;;;7.80;99.90;;;;;;5025761;28;20034;-76
2022/11/25 07:58:56;;;;;;;14.68;3.67;;;7.80;99.90;;;;;;5017402;28;20045;-76
2022/11/25 08:01:22;;;;;;;11.20;3.63;;;7.80;99.90;;;;;;5015654;28;20065;-76
2022/11/25 08:03:49;;;;;;;11.48;3.55;;;7.80;99.90;;;;;;5012825;28;20038;-76
2022/11/25 08:06:18;;;;;;;10.27;3.75;;;7.80;99.90;;;;;;5015386;28;20077;-75
2022/11/25 08:08:44;;;;;;;9.23;3.42;;;7.80;99.90;;;;;;5020126;28;20793;-76
2022/11/25 08:11:20;;;;;;;11.27;3.80;;;7.80;99.90;;;;;;5025719;28;20132;-76
2022/11/25 08:13:46;;;;;;;11.98;3.88;;;7.80;99.90;;;;;;5004693;28;20041;-76
2022/11/25 08:16:14;;;;;;;14.27;3.85;;;7.80;99.90;;;;;;5043771;28;20045;-76
2022/11/25 08:18:40;;;;;;;13.43;3.75;;;7.80;99.90;;;;;;5005864;28;20040;-76
2022/11/25 08:21:11;;;;;;;16.30;4.80;;;7.80;99.90;;;;;;5017988;28;20045;-76
2022/11/25 08:23:38;;;;;;;13.60;3.97;;;7.80;99.90;;;;;;5005003;28;20120;-77
2022/11/25 08:26:12;;;;;;;12.15;4.63;;;7.80;99.90;;;;;;5025510;28;20086;-77
2022/11/25 08:28:40;;;;;;;16.58;4.70;;;7.80;99.90;;;;;;5025666;28;20046;-77
2022/11/25 08:31:15;;;;;;;13.15;4.32;;;7.80;99.90;;;;;;5011195;28;20445;-76
2022/11/25 08:33:42;;;;;;;12.65;4.43;;;7.80;99.90;;;;;;5029732;28;20120;-77
2022/11/25 08:36:08;;;;;;;12.25;4.10;;;7.90;99.90;;;;;;5038532;28;20045;-77
2022/11/25 08:38:34;;;;;;;11.30;4.30;;;7.90;99.90;;;;;;5008633;28;20041;-76
2022/11/25 08:41:00;;;;;;;13.73;5.00;;;7.90;99.90;;;;;;5007720;28;20052;-78
2022/11/25 08:43:26;;;;;;;14.13;4.53;;;8.10;99.90;;;;;;5005842;28;20486;-76
2022/11/25 08:45:52;;;;;;;14.50;5.18;;;8.00;99.90;;;;;;5041256;28;20038;-77
2022/11/25 08:48:19;;;;;;;13.95;5.43;;;8.00;99.90;;;;;;5008807;28;20574;-78
2022/11/25 08:50:50;;;;;;;12.18;4.75;;;8.00;99.90;;;;;;5039688;28;20073;-79
2022/11/25 08:53:17;;;;;;;16.10;4.75;;;8.00;99.90;;;;;;5006953;28;20034;-78
2022/11/25 08:55:42;;;;;;;13.88;5.03;;;8.10;99.90;;;;;;5042180;28;20076;-78
2022/11/25 08:58:10;;;;;;;12.75;5.00;;;8.10;99.90;;;;;;5015054;28;20077;-76
2022/11/25 09:00:36;;;;;;;17.20;5.10;;;8.10;99.90;;;;;;5040410;28;20454;-79
2022/11/25 09:03:02;;;;;;;12.60;5.43;;;8.10;99.90;;;;;;5025299;28;20510;-77
2022/11/25 09:05:34;;;;;;;15.68;5.03;;;8.20;99.90;;;;;;5025492;28;21550;-77
2022/11/25 09:08:03;;;;;;;11.45;5.22;;;8.20;99.90;;;;;;5040748;28;20050;-79
2022/11/25 09:10:29;;;;;;;14.07;5.00;;;8.20;99.90;;;;;;5010736;28;20106;-75
2022/11/25 09:12:55;;;;;;;15.23;5.50;;;8.30;99.90;;;;;;5001074;28;20138;-78
2022/11/25 09:15:20;;;;;;;11.85;5.15;;;8.30;99.90;;;;;;5022727;28;20108;-77
2022/11/25 09:17:46;;;;;;;13.10;5.70;;;8.30;99.90;;;;;;5021935;28;20061;-77
2022/11/25 09:20:11;;;;;;;10.55;5.10;;;8.30;99.90;;;;;;5010493;28;20080;-77
2022/11/25 09:22:37;;;;;;;14.55;6.13;;;8.40;99.90;;;;;;5029308;28;20049;-77
2022/11/25 09:25:03;;;;;;;13.80;5.30;;;8.60;99.90;;;;;;5012723;28;20038;-78
2022/11/25 09:27:30;;;;;;;11.68;5.05;;;8.40;99.90;;;;;;5017093;28;20042;-79
2022/11/25 09:29:56;;;;;;;17.35;5.40;;;8.50;99.90;;;;;;5007550;28;20517;-77
2022/11/25 09:32:21;;;;;;;14.07;5.43;;;8.50;99.90;;;;;;5009290;28;20100;-76
2022/11/25 09:34:47;;;;;;;15.23;5.95;;;8.50;99.90;;;;;;5007886;28;20044;-77
2022/11/25 09:37:12;;;;;;;14.60;5.45;;;8.50;99.90;;;;;;5022103;28;20120;-77
2022/11/25 09:39:38;;;;;;;15.68;5.32;;;8.60;99.90;;;;;;5027155;28;20041;-76
2022/11/25 09:48:27;;;;;;;17.70;5.22;;;8.60;99.90;;;;;;5008771;28;20050;-78
2022/11/25 09:51:21;;;;;;;11.20;5.05;;;8.70;99.90;;;;;;5003156;28;20038;-78
2022/11/25 09:53:55;;;;;;;16.00;4.78;;;8.70;99.90;;;;;;5001810;28;20049;-77
2022/11/25 09:56:46;;;;;;;14.98;4.82;;;8.80;99.90;;;;;;5028500;28;20082;-77
2022/11/25 09:59:15;;;;;;;13.82;4.38;;;8.80;99.90;;;;;;5021736;28;20088;-78
2022/11/25 10:01:45;;;;;;;11.90;4.35;;;8.80;99.90;;;;;;5028393;28;20057;-77
2022/11/25 10:04:20;;;;;;;9.95;4.40;;;8.90;99.90;;;;;;5028206;28;20037;-77
2022/11/25 10:06:55;;;;;;;10.20;4.13;;;9.10;99.90;;;;;;5013872;28;20493;-78
2022/11/25 10:09:28;;;;;;;11.73;4.32;;;9.00;99.90;;;;;;5040370;28;20056;-79
2022/11/25 10:12:02;;;;;;;11.18;4.30;;;9.00;99.90;;;;;;5013011;28;20038;-79
2022/11/25 10:14:52;;;;;;;10.52;4.20;;;9.10;99.90;;;;;;5010393;28;20091;-79
2022/11/25 10:17:42;;;;;;;17.75;4.45;;;9.10;99.90;;;;;;5023703;28;20593;-77
2022/11/25 10:20:20;;;;;;;12.90;4.28;;;9.10;99.90;;;;;;5033206;28;20081;-78
2022/11/25 10:22:52;;;;;;;10.38;3.42;;;9.20;99.90;;;;;;5034388;28;20121;-78
2022/11/25 10:25:24;;;;;;;14.48;4.22;;;9.20;99.90;;;;;;5032959;28;20037;-78
2022/11/25 10:27:56;;;;;;;10.88;3.70;;;9.30;99.90;;;;;;5019714;28;20034;-79
2022/11/25 10:30:25;;;;;;;8.15;3.47;;;9.30;99.90;;;;;;5001036;28;20050;-77
2022/11/25 10:33:17;;;;;;;9.05;3.85;;;9.40;99.90;;;;;;5008892;28;20050;-78
2022/11/25 10:35:48;;;;;;;10.48;3.20;;;9.40;99.90;;;;;;5001151;28;20030;-80
2022/11/25 10:38:35;;;;;;;8.95;3.38;;;9.50;99.90;;;;;;5005752;28;20043;-79
2022/11/25 10:41:02;;;;;;;9.48;2.83;;;9.50;99.90;;;;;;5016103;28;20498;-78
2022/11/25 10:43:32;;;;;;;12.60;3.03;;;9.50;99.90;;;;;;5019319;28;20042;-78
2022/11/25 10:46:28;;;;;;;10.15;3.20;;;9.60;99.90;;;;;;5031819;28;20049;-78
2022/11/25 10:49:04;;;;;;;10.20;2.95;;;9.60;99.90;;;;;;5025554;28;20045;-81
2022/11/25 10:51:44;;;;;;;12.00;3.10;;;9.70;99.90;;;;;;5013960;28;20038;-78
2022/11/25 10:54:24;;;;;;;11.30;3.25;;;9.80;99.90;;;;;;5008316;28;20042;-79
2022/11/25 10:56:59;;;;;;;8.90;2.83;;;9.90;99.90;;;;;;5007348;28;20038;-78
2022/11/25 10:59:51;;;;;;;8.35;2.85;;;9.90;99.90;;;;;;5011677;28;20073;-79
2022/11/25 11:02:24;;;;;;;13.18;3.63;;;10.00;99.90;;;;;;4992016;28;20042;-78
2022/11/25 11:04:58;;;;;;;12.02;3.10;;;10.00;99.90;;;;;;5013110;28;20040;-77
2022/11/25 11:07:27;;;;;;;11.07;3.10;;;10.00;99.90;;;;;;5025826;28;20037;-78
2022/11/25 11:09:53;;;;;;;11.70;2.85;;;10.00;99.90;;;;;;5008281;28;20069;-77
2022/11/25 11:12:27;;;;;;;12.32;3.60;;;10.00;99.90;;;;;;5032849;28;20038;-78
2022/11/25 11:15:13;;;;;;;15.65;3.33;;;10.00;99.90;;;;;;5014892;28;20461;-78
2022/11/25 11:17:39;;;;;;;12.23;2.75;;;10.30;99.90;;;;;;5014645;28;20463;-77
2022/11/25 11:20:07;;;;;;;11.00;3.08;;;10.10;99.90;;;;;;5034590;28;20085;-78
2022/11/25 11:23:10;;;;;;;8.73;3.15;;;10.10;99.90;;;;;;4996364;28;20098;-77
2022/11/25 11:25:43;;;;;;;9.00;3.00;;;10.10;99.90;;;;;;5021664;28;20179;-78
2022/11/25 11:28:31;;;;;;;13.13;3.22;;;10.20;99.90;;;;;;5039594;28;20038;-77
2022/11/25 11:31:06;;;;;;;13.52;3.45;;;10.20;99.90;;;;;;5015633;28;20095;-77
2022/11/25 11:33:47;;;;;;;13.05;3.13;;;10.20;99.90;;;;;;5021327;28;20183;-77
2022/11/25 11:36:21;;;;;;;9.45;3.08;;;10.30;99.90;;;;;;5012849;28;20069;-77
2022/11/25 11:38:53;;;;;;;11.35;2.90;;;10.40;99.90;;;;;;5013422;28;20068;-77
2022/11/25 11:41:28;;;;;;;11.57;3.05;;;10.40;99.90;;;;;;5048903;28;20037;-78
2022/11/25 11:44:07;;;;;;;12.63;3.25;;;10.40;99.90;;;;;;5020825;28;20041;-77
2022/11/25 11:46:47;;;;;;;10.63;2.90;;;10.40;99.90;;;;;;5010931;28;20382;-79
2022/11/25 11:49:46;;;;;;;13.95;3.30;;;10.40;99.90;;;;;;5015617;28;20034;-78
2022/11/25 11:52:38;;;;;;;13.55;3.63;;;10.40;99.90;;;;;;5022910;28;20116;-76
2022/11/25 11:55:27;;;;;;;11.35;3.08;;;10.50;99.90;;;;;;5015485;28;20499;-78
2022/11/25 11:57:52;;;;;;;11.18;3.47;;;10.40;99.90;;;;;;5017749;28;20113;-79
2022/11/25 12:00:19;;;;;;;12.73;3.30;;;10.50;99.90;;;;;;5018631;28;20124;-78
2022/11/25 12:02:58;;;;;;;14.05;3.20;;;10.60;99.90;;;;;;5029431;28;20033;-77
2022/11/25 12:05:28;;;;;;;13.55;3.13;;;10.70;99.90;;;;;;5020546;28;20037;-77
2022/11/25 12:08:08;;;;;;;12.57;3.47;;;10.70;99.90;;;;;;5021079;28;20410;-77
2022/11/25 12:10:49;;;;;;;12.48;3.72;;;10.60;99.90;;;;;;5013082;28;20506;-79
2022/11/25 12:13:24;;;;;;;16.05;3.78;;;10.60;99.90;;;;;;5006645;28;20046;-79
2022/11/25 12:15:55;;;;;;;12.02;3.40;;;10.60;99.90;;;;;;5022861;28;20463;-78
2022/11/25 12:18:43;;;;;;;11.95;2.97;;;10.60;99.90;;;;;;5007299;28;20068;-78
2022/11/25 12:21:39;;;;;;;14.52;3.67;;;10.70;99.90;;;;;;5036600;28;20402;-77
2022/11/25 12:24:41;;;;;;;11.60;3.50;;;10.70;99.90;;;;;;5041457;28;20048;-78
2022/11/25 12:27:16;;;;;;;13.43;3.58;;;10.70;99.90;;;;;;5026832;28;20057;-78
2022/11/25 12:29:54;;;;;;;10.40;3.17;;;10.70;99.90;;;;;;5021438;28;20046;-78
2022/11/25 12:32:41;;;;;;;19.80;3.70;;;10.70;99.90;;;;;;5004493;28;20037;-78
2022/11/25 12:35:09;;;;;;;13.55;3.28;;;10.70;99.90;;;;;;5046027;28;20328;-79
2022/11/25 12:38:01;;;;;;;11.00;3.08;;;10.70;99.90;;;;;;5029846;28;20090;-78
2022/11/25 12:41:18;;;;;;;11.85;3.13;;;10.60;99.90;;;;;;4996811;28;20057;-78
2022/11/25 12:43:59;;;;;;;13.90;3.50;;;10.50;99.90;;;;;;4964849;28;20050;-80
2022/11/25 12:46:46;;;;;;;13.00;3.70;;;10.50;99.90;;;;;;5041719;28;20513;-78
2022/11/25 12:49:17;;;;;;;15.38;3.65;;;10.70;99.90;;;;;;5041413;28;20034;-79
2022/11/25 12:51:42;;;;;;;15.50;4.43;;;11.00;99.90;;;;;;5006377;28;20042;-77
2022/11/25 12:54:49;;;;;;;13.98;3.00;;;11.20;99.90;;;;;;5046727;28;20050;-76
2022/11/25 12:57:48;;;;;;;13.98;3.88;;;11.40;99.90;;;;;;5021195;28;20050;-76
2022/11/25 13:00:19;;;;;;;11.73;3.25;;;11.50;99.90;;;;;;5013831;28;20095;-77
2022/11/25 13:03:24;;;;;;;14.35;3.22;;;11.50;99.90;;;;;;5006239;28;20151;-81
2022/11/25 13:06:05;;;;;;;14.07;3.22;;;11.50;99.90;;;;;;5043209;28;20037;-77
2022/11/25 13:09:00;;;;;;;12.23;3.08;;;11.40;99.90;;;;;;5007195;28;20046;-77
2022/11/25 13:11:50;;;;;;;10.68;3.38;;;11.30;99.90;;;;;;5014288;28;20557;-77
2022/11/25 13:14:57;;;;;;;13.75;3.28;;;11.10;99.90;;;;;;5025439;28;20073;-77